Time;durP1;ratioP1;P1;durP2;ratioP2;P2;SDS_P1;SDS_P2;PMS_P1;PMS_P2;Temp;Humidity;BMP_temperature;BMP_pressure;BME280_temperature;BME280_humidity;BME280_pressure;Samples;Min_cycle;Max_cycle;Signal;HPM_P1;HPM_P2
2023/11/06 00:00:21;;;;;;;2.65;1.50;;;10.60;47.40;;;;;;5095316;28;20202;-75
2023/11/06 00:03:00;;;;;;;1.90;0.75;;;10.70;47.80;;;;;;5095154;28;20182;-74
2023/11/06 00:05:29;;;;;;;2.70;0.80;;;10.60;48.10;;;;;;5095708;28;20550;-74
2023/11/06 00:07:58;;;;;;;3.60;0.80;;;10.60;48.50;;;;;;5095075;28;20189;-74
2023/11/06 00:10:28;;;;;;;2.35;0.80;;;10.60;48.80;;;;;;5095171;28;20223;-74
2023/11/06 00:12:56;;;;;;;2.22;0.95;;;10.60;49.10;;;;;;5095338;28;20193;-74
2023/11/06 00:15:25;;;;;;;4.72;1.05;;;10.60;49.40;;;;;;5095252;28;20205;-74
2023/11/06 00:18:00;;;;;;;2.38;1.00;;;10.60;49.60;;;;;;5094944;28;20621;-74
2023/11/06 00:20:32;;;;;;;2.58;0.85;;;10.60;49.80;;;;;;5094791;28;20225;-74
2023/11/06 00:22:59;;;;;;;2.17;0.80;;;10.60;49.80;;;;;;5094919;28;20182;-74
2023/11/06 00:25:33;;;;;;;2.70;0.70;;;10.50;49.80;;;;;;5094378;28;20189;-75
2023/11/06 00:28:06;;;;;;;5.25;0.90;;;10.60;49.90;;;;;;5095065;28;20243;-74
2023/11/06 00:30:35;;;;;;;3.78;0.77;;;10.60;50.00;;;;;;5094722;28;20273;-74
2023/11/06 00:33:07;;;;;;;2.13;0.80;;;10.60;50.20;;;;;;5094842;28;20190;-74
2023/11/06 00:35:34;;;;;;;1.80;0.70;;;10.50;50.20;;;;;;5094981;28;20231;-74
2023/11/06 00:38:03;;;;;;;1.90;0.65;;;10.50;50.20;;;;;;5094331;28;20548;-74
2023/11/06 00:40:34;;;;;;;3.08;0.90;;;10.50;50.40;;;;;;5094379;28;20289;-75
2023/11/06 00:43:26;;;;;;;3.40;0.80;;;10.50;50.60;;;;;;5094617;28;20239;-74
2023/11/06 00:45:54;;;;;;;2.88;1.05;;;10.50;50.60;;;;;;5094784;28;20196;-74
2023/11/06 00:48:24;;;;;;;2.03;0.75;;;10.50;50.70;;;;;;5094276;28;20235;-74
2023/11/06 00:50:51;;;;;;;1.90;0.70;;;10.40;50.70;;;;;;5094361;28;20254;-74
2023/11/06 00:53:21;;;;;;;2.60;0.90;;;10.40;50.70;;;;;;5093943;28;20193;-74
2023/11/06 00:55:48;;;;;;;2.72;0.80;;;10.40;50.60;;;;;;5094260;28;20246;-75
2023/11/06 00:58:33;;;;;;;2.88;0.80;;;10.50;50.70;;;;;;5094427;28;20615;-75
2023/11/06 01:01:04;;;;;;;1.80;0.63;;;10.50;50.70;;;;;;5094114;28;20235;-74
2023/11/06 01:03:32;;;;;;;1.70;0.60;;;10.50;50.80;;;;;;5094044;28;20520;-74
2023/11/06 01:06:18;;;;;;;2.88;0.70;;;10.40;51.70;;;;;;5093885;28;20200;-74
2023/11/06 01:08:45;;;;;;;2.03;0.70;;;10.40;51.30;;;;;;5093923;28;20190;-75
2023/11/06 01:11:15;;;;;;;3.13;1.15;;;10.40;51.50;;;;;;5094029;28;20204;-74
2023/11/06 01:14:01;;;;;;;2.50;0.70;;;10.40;51.90;;;;;;5093994;28;20182;-75
2023/11/06 01:16:29;;;;;;;2.00;0.70;;;10.40;52.20;;;;;;5093757;28;20181;-74
2023/11/06 01:18:59;;;;;;;2.28;0.70;;;10.30;52.30;;;;;;5093303;28;20221;-75
2023/11/06 01:21:38;;;;;;;3.83;1.02;;;10.30;52.80;;;;;;5093639;28;20279;-74
2023/11/06 01:24:10;;;;;;;2.55;0.90;;;10.30;53.20;;;;;;5093511;28;20212;-75
2023/11/06 01:26:42;;;;;;;2.53;0.73;;;10.20;53.70;;;;;;5093710;28;20182;-74
2023/11/06 01:29:12;;;;;;;2.42;0.70;;;10.20;54.00;;;;;;5093442;28;20264;-74
2023/11/06 01:31:42;;;;;;;1.90;0.73;;;10.20;54.30;;;;;;5094064;28;20280;-74
2023/11/06 01:34:09;;;;;;;2.10;0.70;;;10.10;54.30;;;;;;5093188;28;20246;-74
2023/11/06 01:36:43;;;;;;;2.50;0.75;;;10.10;54.60;;;;;;5093526;28;20225;-74
2023/11/06 01:39:12;;;;;;;2.28;0.82;;;10.10;54.90;;;;;;5093748;28;20174;-74
2023/11/06 01:41:46;;;;;;;2.17;0.70;;;10.10;54.80;;;;;;5093270;28;20226;-75
2023/11/06 01:44:16;;;;;;;2.42;0.60;;;10.10;54.80;;;;;;5093605;28;20181;-74
2023/11/06 01:46:45;;;;;;;2.03;0.77;;;10.00;54.90;;;;;;5093010;28;20698;-74
2023/11/06 01:49:15;;;;;;;2.10;0.70;;;9.90;55.90;;;;;;5093264;28;20194;-74
2023/11/06 01:51:57;;;;;;;1.70;0.60;;;9.90;56.10;;;;;;5093135;28;20235;-74
2023/11/06 01:54:24;;;;;;;2.15;0.77;;;9.80;56.10;;;;;;5093167;28;20240;-74
2023/11/06 01:56:54;;;;;;;3.47;0.77;;;9.70;56.30;;;;;;5093424;28;20207;-74
2023/11/06 01:59:26;;;;;;;2.20;0.80;;;9.70;56.20;;;;;;5093246;28;20300;-74
2023/11/06 02:02:04;;;;;;;4.18;1.20;;;9.60;56.00;;;;;;5092669;28;20213;-74
2023/11/06 02:04:34;;;;;;;2.38;0.80;;;9.50;56.20;;;;;;5093864;28;20173;-74
2023/11/06 02:07:02;;;;;;;2.13;0.80;;;9.40;56.60;;;;;;5097594;28;20589;-74
2023/11/06 02:09:37;;;;;;;2.75;0.90;;;9.40;57.00;;;;;;5097177;28;20204;-74
2023/11/06 02:12:06;;;;;;;1.95;0.60;;;9.30;56.70;;;;;;5097109;28;20203;-74
2023/11/06 02:14:49;;;;;;;3.00;1.00;;;9.20;56.90;;;;;;5097413;28;20266;-74
2023/11/06 02:17:19;;;;;;;2.05;0.70;;;9.20;57.00;;;;;;5097211;28;20173;-74
2023/11/06 02:19:51;;;;;;;2.53;0.70;;;9.10;57.30;;;;;;5096810;28;20233;-74
2023/11/06 02:22:20;;;;;;;2.63;0.82;;;9.00;57.40;;;;;;5097422;28;20543;-74
2023/11/06 02:24:53;;;;;;;2.08;0.90;;;9.00;57.70;;;;;;5097041;28;20193;-74
2023/11/06 02:27:21;;;;;;;2.10;0.77;;;8.90;57.70;;;;;;5097071;28;20605;-74
2023/11/06 02:29:54;;;;;;;1.90;0.70;;;8.80;58.20;;;;;;5097107;28;20229;-75
2023/11/06 02:32:42;;;;;;;2.00;0.80;;;8.70;58.70;;;;;;5076922;28;20718;-74
2023/11/06 02:35:11;;;;;;;2.72;0.70;;;8.70;59.20;;;;;;5076593;28;20182;-74
2023/11/06 02:37:38;;;;;;;10.27;3.97;;;8.70;59.50;;;;;;5076417;28;20664;-74
2023/11/06 02:40:12;;;;;;;3.05;1.23;;;8.70;59.60;;;;;;5076395;28;20245;-74
2023/11/06 02:42:42;;;;;;;2.33;0.80;;;8.60;60.50;;;;;;5076613;28;20251;-74
2023/11/06 02:45:25;;;;;;;2.20;0.70;;;8.60;59.90;;;;;;5075985;28;20302;-75
2023/11/06 02:47:53;;;;;;;3.03;0.90;;;8.60;60.10;;;;;;5082613;28;20231;-74
2023/11/06 02:50:21;;;;;;;1.90;0.80;;;8.50;60.60;;;;;;5096698;28;20302;-75
2023/11/06 02:52:55;;;;;;;2.95;0.70;;;8.60;61.30;;;;;;5096313;28;20224;-74
2023/11/06 02:55:26;;;;;;;2.58;1.02;;;8.70;61.50;;;;;;5095849;28;20231;-74
2023/11/06 02:57:58;;;;;;;1.85;0.75;;;8.70;61.90;;;;;;5096009;28;20218;-75
2023/11/06 03:00:32;;;;;;;1.80;0.60;;;8.70;62.00;;;;;;5096020;28;20289;-74
2023/11/06 03:03:04;;;;;;;2.20;0.80;;;8.70;62.20;;;;;;5095861;28;20181;-74
2023/11/06 03:05:33;;;;;;;2.28;0.80;;;8.70;62.20;;;;;;5096139;28;20182;-74
2023/11/06 03:08:03;;;;;;;3.78;0.85;;;8.70;63.40;;;;;;5096526;28;20266;-74
2023/11/06 03:10:39;;;;;;;2.63;0.80;;;8.70;62.80;;;;;;5075711;28;20182;-74
2023/11/06 03:13:07;;;;;;;4.03;0.80;;;8.70;63.00;;;;;;5076018;28;20196;-74
2023/11/06 03:15:34;;;;;;;1.80;0.60;;;8.70;63.50;;;;;;5075329;28;20281;-74
2023/11/06 03:18:05;;;;;;;1.92;0.75;;;8.80;63.90;;;;;;5075623;28;20267;-74
2023/11/06 03:20:35;;;;;;;7.47;0.88;;;8.80;64.90;;;;;;5075155;28;20219;-74
2023/11/06 03:23:10;;;;;;;1.92;0.75;;;8.90;65.30;;;;;;5077571;28;20174;-74
2023/11/06 03:25:38;;;;;;;5.78;0.70;;;8.90;65.00;;;;;;5096371;28;20185;-74
2023/11/06 03:28:13;;;;;;;2.50;0.85;;;8.90;64.80;;;;;;5095979;28;20262;-74
2023/11/06 03:30:45;;;;;;;2.95;0.90;;;9.00;65.10;;;;;;5095544;28;20192;-74
2023/11/06 03:33:12;;;;;;;2.15;0.80;;;8.90;65.10;;;;;;5095727;28;20703;-74
2023/11/06 03:35:39;;;;;;;6.40;1.17;;;8.90;65.80;;;;;;5095652;28;20254;-74
2023/11/06 03:38:07;;;;;;;2.17;0.73;;;8.90;66.90;;;;;;5095213;28;20632;-74
2023/11/06 03:40:38;;;;;;;3.67;0.93;;;8.90;66.00;;;;;;5095337;28;20692;-74
2023/11/06 03:43:06;;;;;;;1.90;0.70;;;8.90;66.10;;;;;;5095824;28;20182;-74
2023/11/06 03:45:38;;;;;;;2.80;1.10;;;8.90;66.70;;;;;;5095627;28;20193;-74
2023/11/06 03:48:08;;;;;;;2.85;1.00;;;8.90;66.70;;;;;;5095870;28;20589;-75
2023/11/06 03:50:42;;;;;;;2.90;1.25;;;8.90;66.90;;;;;;5095834;28;20197;-74
2023/11/06 03:53:10;;;;;;;2.10;0.90;;;8.90;66.90;;;;;;5095276;28;20174;-74
2023/11/06 03:55:39;;;;;;;3.13;1.20;;;8.90;67.00;;;;;;5095126;28;20197;-74
2023/11/06 03:58:07;;;;;;;2.63;1.20;;;9.00;66.80;;;;;;5095172;28;20677;-75
2023/11/06 04:00:37;;;;;;;3.58;0.93;;;8.90;66.70;;;;;;5094659;28;20282;-74
2023/11/06 04:03:07;;;;;;;2.10;0.80;;;8.90;66.70;;;;;;5095094;28;20197;-74
2023/11/06 04:05:35;;;;;;;2.00;0.93;;;8.90;66.70;;;;;;5095327;28;20182;-74
2023/11/06 04:08:04;;;;;;;2.50;1.05;;;8.90;66.70;;;;;;5095296;28;20189;-74
2023/11/06 04:10:33;;;;;;;2.03;0.90;;;9.00;66.60;;;;;;5095161;28;20613;-74
2023/11/06 04:13:04;;;;;;;4.47;1.50;;;9.00;66.60;;;;;;5095269;28;20189;-75
2023/11/06 04:15:34;;;;;;;2.60;1.10;;;8.90;66.40;;;;;;5093729;28;20702;-74
2023/11/06 04:18:18;;;;;;;2.75;1.00;;;9.00;66.40;;;;;;5094620;28;20643;-74
2023/11/06 04:20:54;;;;;;;4.28;1.10;;;9.00;66.40;;;;;;5094105;28;20258;-74
2023/11/06 04:23:27;;;;;;;2.28;1.10;;;8.90;66.20;;;;;;5094970;28;20249;-74
2023/11/06 04:25:54;;;;;;;2.33;1.00;;;9.00;66.00;;;;;;5094558;28;20178;-74
2023/11/06 04:28:22;;;;;;;3.25;0.95;;;9.00;65.60;;;;;;5094153;28;20186;-74
2023/11/06 04:30:57;;;;;;;3.15;0.90;;;9.00;65.60;;;;;;5094466;28;20505;-74
2023/11/06 04:33:24;;;;;;;2.85;1.00;;;9.00;65.60;;;;;;5094827;28;20189;-74
2023/11/06 04:35:59;;;;;;;2.75;1.27;;;9.00;65.70;;;;;;5094530;28;20575;-75
2023/11/06 04:38:33;;;;;;;3.53;1.13;;;9.00;65.40;;;;;;5094323;28;20177;-74
2023/11/06 04:41:02;;;;;;;1.83;0.70;;;9.00;65.30;;;;;;5094574;28;20206;-75
2023/11/06 04:43:30;;;;;;;2.10;1.08;;;9.00;65.50;;;;;;5094622;28;20221;-74
2023/11/06 04:46:00;;;;;;;2.83;1.25;;;9.00;65.40;;;;;;5094276;28;20295;-74
2023/11/06 04:48:28;;;;;;;2.50;1.40;;;9.00;65.40;;;;;;5094149;28;20262;-74
2023/11/06 04:50:59;;;;;;;2.72;1.20;;;9.00;65.30;;;;;;5093679;28;20232;-74
2023/11/06 04:53:31;;;;;;;2.50;1.23;;;9.00;65.10;;;;;;5094284;28;20239;-74
2023/11/06 04:56:04;;;;;;;3.15;1.00;;;9.00;64.90;;;;;;5094364;28;20174;-74
2023/11/06 04:58:32;;;;;;;2.75;0.95;;;9.00;64.90;;;;;;5094328;28;20227;-74
2023/11/06 05:01:07;;;;;;;4.15;1.05;;;9.00;64.70;;;;;;5093428;28;20205;-74
2023/11/06 05:03:38;;;;;;;3.03;1.23;;;9.00;64.30;;;;;;5094166;28;20285;-74
2023/11/06 05:06:13;;;;;;;1.90;0.80;;;9.00;64.10;;;;;;5093869;28;20186;-74
2023/11/06 05:08:42;;;;;;;3.13;1.05;;;8.80;64.10;;;;;;5093798;28;20197;-74
2023/11/06 05:11:15;;;;;;;2.28;0.80;;;8.80;64.70;;;;;;5093996;28;20201;-74
2023/11/06 05:13:44;;;;;;;2.40;1.00;;;8.70;65.00;;;;;;5094083;28;20632;-74
2023/11/06 05:16:16;;;;;;;2.22;0.90;;;8.70;64.90;;;;;;5093198;28;20190;-74
2023/11/06 05:18:45;;;;;;;1.92;0.70;;;8.60;64.80;;;;;;5093895;28;20193;-74
2023/11/06 05:21:23;;;;;;;2.10;0.70;;;8.60;64.90;;;;;;5093390;28;20229;-74
2023/11/06 05:23:51;;;;;;;2.40;0.77;;;8.40;64.90;;;;;;5093582;28;20224;-74
2023/11/06 05:26:18;;;;;;;2.53;0.90;;;8.40;65.10;;;;;;5093381;28;20190;-74
2023/11/06 05:28:47;;;;;;;2.70;1.00;;;8.20;65.10;;;;;;5092839;28;20189;-74
2023/11/06 05:31:14;;;;;;;3.28;1.00;;;8.10;65.80;;;;;;5093649;28;20200;-74
2023/11/06 05:33:43;;;;;;;2.65;1.05;;;8.10;65.90;;;;;;5093029;28;20185;-74
2023/11/06 05:36:13;;;;;;;2.50;0.93;;;8.00;65.80;;;;;;5092462;28;20194;-74
2023/11/06 05:38:40;;;;;;;5.53;1.10;;;7.90;65.80;;;;;;5092941;28;20197;-74
2023/11/06 05:41:11;;;;;;;2.30;0.80;;;7.90;65.90;;;;;;5093149;28;20214;-74
2023/11/06 05:43:41;;;;;;;3.47;1.13;;;7.90;65.60;;;;;;5092620;28;20546;-75
2023/11/06 05:46:10;;;;;;;2.60;1.10;;;7.80;65.50;;;;;;5093649;28;20178;-74
2023/11/06 05:48:37;;;;;;;3.15;0.98;;;7.70;65.30;;;;;;5093458;28;20242;-74
2023/11/06 05:51:04;;;;;;;3.08;1.23;;;7.60;65.30;;;;;;5093232;28;20713;-74
2023/11/06 05:53:32;;;;;;;3.08;1.10;;;7.60;65.60;;;;;;5093006;28;20193;-74
2023/11/06 05:55:59;;;;;;;2.45;1.08;;;7.50;65.70;;;;;;5093462;28;20189;-74
2023/11/06 05:58:26;;;;;;;2.65;0.90;;;7.40;65.40;;;;;;5073143;28;20225;-74
2023/11/06 06:01:00;;;;;;;4.03;1.02;;;7.40;65.40;;;;;;5073083;28;20214;-74
2023/11/06 06:03:29;;;;;;;2.20;1.00;;;7.30;65.30;;;;;;5072967;28;20637;-75
2023/11/06 06:05:56;;;;;;;2.10;0.82;;;7.30;64.60;;;;;;5084462;28;20606;-74
2023/11/06 06:08:23;;;;;;;2.15;1.05;;;7.30;64.40;;;;;;5092354;28;20193;-74
2023/11/06 06:10:50;;;;;;;2.30;0.90;;;7.30;64.10;;;;;;5093110;28;20197;-74
2023/11/06 06:13:18;;;;;;;2.30;1.20;;;7.20;63.90;;;;;;5093050;28;20280;-74
2023/11/06 06:15:47;;;;;;;2.60;1.10;;;7.20;64.10;;;;;;5092783;28;20193;-74
2023/11/06 06:18:14;;;;;;;3.70;1.30;;;7.10;64.30;;;;;;5093059;28;20190;-74
2023/11/06 06:20:42;;;;;;;3.58;1.05;;;7.10;64.50;;;;;;5092387;28;20225;-74
2023/11/06 06:23:11;;;;;;;2.60;1.00;;;7.10;64.30;;;;;;5085951;28;20246;-75
2023/11/06 06:25:43;;;;;;;5.60;1.50;;;7.10;64.30;;;;;;5085274;28;20563;-75
2023/11/06 06:28:13;;;;;;;2.78;1.63;;;7.10;64.40;;;;;;5085777;28;20190;-75
2023/11/06 06:30:41;;;;;;;4.10;1.40;;;7.20;64.50;;;;;;5091674;28;20197;-74
2023/11/06 06:33:08;;;;;;;2.47;1.23;;;7.30;64.40;;;;;;5090388;28;20671;-74
2023/11/06 06:35:35;;;;;;;3.33;1.10;;;7.50;64.00;;;;;;5091917;28;20221;-74
2023/11/06 06:38:03;;;;;;;2.67;1.20;;;7.70;63.70;;;;;;5091018;28;20185;-75
2023/11/06 06:40:30;;;;;;;3.97;1.20;;;7.90;63.00;;;;;;5091343;28;20185;-75
2023/11/06 06:42:57;;;;;;;2.65;1.08;;;8.10;62.30;;;;;;5090874;28;20682;-75
2023/11/06 06:45:25;;;;;;;4.38;1.65;;;8.40;61.80;;;;;;5090767;28;20182;-75
2023/11/06 06:47:53;;;;;;;5.85;1.60;;;8.60;61.00;;;;;;5091594;28;20193;-75
2023/11/06 06:50:20;;;;;;;6.57;1.67;;;8.90;60.80;;;;;;5091838;28;20701;-75
2023/11/06 06:52:47;;;;;;;3.35;1.98;;;9.20;60.10;;;;;;5095661;28;20189;-75
2023/11/06 06:55:21;;;;;;;3.35;1.63;;;9.50;59.10;;;;;;5095330;28;20280;-75
2023/11/06 06:57:48;;;;;;;3.28;1.73;;;9.70;58.00;;;;;;5092970;28;20519;-75
2023/11/06 07:00:15;;;;;;;4.35;1.55;;;10.10;56.70;;;;;;5094220;28;20250;-75
2023/11/06 07:02:46;;;;;;;2.70;1.92;;;10.40;55.70;;;;;;5095397;28;20245;-75
2023/11/06 07:05:13;;;;;;;2.83;1.33;;;10.60;55.10;;;;;;5094784;28;20177;-75
2023/11/06 07:07:40;;;;;;;3.97;1.70;;;10.80;54.70;;;;;;5075620;28;20285;-75
2023/11/06 07:10:08;;;;;;;3.22;1.50;;;11.10;54.50;;;;;;5081993;28;20178;-75
2023/11/06 07:12:37;;;;;;;3.20;1.65;;;11.40;53.50;;;;;;5075335;28;20226;-75
2023/11/06 07:15:06;;;;;;;2.95;1.85;;;11.60;53.20;;;;;;5086242;28;20189;-76
2023/11/06 07:17:35;;;;;;;3.05;1.55;;;11.80;52.50;;;;;;5095723;28;20190;-76
2023/11/06 07:20:08;;;;;;;3.20;1.60;;;12.10;52.00;;;;;;5094805;28;20216;-76
2023/11/06 07:22:35;;;;;;;3.25;1.50;;;12.30;50.70;;;;;;5095292;28;20740;-76
2023/11/06 07:25:06;;;;;;;2.90;1.30;;;12.40;51.00;;;;;;5095364;28;20200;-76
2023/11/06 07:27:34;;;;;;;4.32;1.00;;;12.80;51.00;;;;;;5091561;28;20184;-76
2023/11/06 07:30:03;;;;;;;6.00;1.50;;;13.10;50.50;;;;;;5093391;28;20227;-76
2023/11/06 07:32:32;;;;;;;2.00;1.00;;;13.40;49.60;;;;;;5095045;28;20436;-76
2023/11/06 07:35:00;;;;;;;2.83;1.13;;;13.70;49.60;;;;;;5093683;28;20431;-76
2023/11/06 07:37:29;;;;;;;2.60;1.50;;;14.10;49.20;;;;;;5094920;28;20442;-76
2023/11/06 07:39:59;;;;;;;2.60;1.07;;;14.40;47.70;;;;;;5094940;28;20443;-76
2023/11/06 07:42:26;;;;;;;2.93;1.10;;;14.70;47.90;;;;;;5090582;28;20467;-76
2023/11/06 07:44:53;;;;;;;5.90;1.53;;;15.00;46.80;;;;;;5094189;28;20432;-76
2023/11/06 07:47:22;;;;;;;5.30;1.20;;;15.40;46.70;;;;;;5094068;28;20436;-76
2023/11/06 07:49:52;;;;;;;2.80;0.93;;;15.70;45.20;;;;;;5094462;28;20949;-76
2023/11/06 07:52:19;;;;;;;8.73;1.07;;;15.70;45.20;;;;;;5091441;28;20938;-76
2023/11/06 07:54:48;;;;;;;4.37;1.30;;;15.80;44.80;;;;;;5093216;28;20439;-77
2023/11/06 07:57:21;;;;;;;3.67;1.10;;;16.20;44.80;;;;;;5093273;28;20447;-76
2023/11/06 07:59:51;;;;;;;3.10;1.40;;;16.80;44.90;;;;;;5074743;28;20524;-77
2023/11/06 08:02:18;;;;;;;2.90;0.80;;;17.40;44.20;;;;;;5074033;28;20479;-76
2023/11/06 08:04:47;;;;;;;2.37;0.90;;;17.90;42.40;;;;;;5074824;28;20435;-76
2023/11/06 08:07:14;;;;;;;3.90;0.70;;;18.40;41.90;;;;;;5074908;28;20598;-76
2023/11/06 08:09:44;;;;;;;2.23;0.93;;;18.90;41.20;;;;;;5074801;28;20494;-76
2023/11/06 08:12:14;;;;;;;2.63;0.90;;;19.40;39.80;;;;;;5075051;28;20444;-76
2023/11/06 08:14:41;;;;;;;4.43;0.90;;;19.90;39.50;;;;;;5074678;28;20474;-76
2023/11/06 08:17:08;;;;;;;3.30;1.00;;;20.20;37.50;;;;;;5074556;28;20992;-76
2023/11/06 08:19:40;;;;;;;2.40;1.00;;;19.90;36.90;;;;;;5074515;28;20436;-77
2023/11/06 08:22:09;;;;;;;2.33;0.90;;;20.10;36.60;;;;;;5074904;28;20472;-77
2023/11/06 08:24:39;;;;;;;2.30;0.90;;;20.50;36.30;;;;;;5074462;28;20467;-76
2023/11/06 08:27:06;;;;;;;2.37;0.73;;;21.00;35.80;;;;;;5074710;28;20545;-77
2023/11/06 08:29:34;;;;;;;3.90;1.07;;;21.30;34.70;;;;;;5074658;28;20432;-76
2023/11/06 08:32:04;;;;;;;3.03;0.90;;;21.70;33.50;;;;;;5074243;28;20527;-76
2023/11/06 08:34:33;;;;;;;1.90;0.73;;;22.00;32.90;;;;;;5074318;28;20464;-76
2023/11/06 08:37:00;;;;;;;2.30;0.80;;;22.30;32.00;;;;;;5073967;28;20482;-76
2023/11/06 08:39:29;;;;;;;4.40;1.90;;;22.50;31.40;;;;;;5074232;28;20440;-76
2023/11/06 08:41:56;;;;;;;3.87;1.67;;;22.90;31.30;;;;;;5074364;28;20476;-77
2023/11/06 08:44:23;;;;;;;2.43;0.70;;;23.30;31.40;;;;;;5074013;28;20467;-76
2023/11/06 08:46:50;;;;;;;2.23;0.60;;;23.70;30.00;;;;;;5074425;28;20494;-77
2023/11/06 08:49:17;;;;;;;2.30;0.83;;;24.10;29.60;;;;;;5074034;28;20440;-77
2023/11/06 08:52:02;;;;;;;2.30;0.70;;;24.40;28.70;;;;;;5074289;28;20498;-77
2023/11/06 08:54:31;;;;;;;3.97;1.27;;;24.60;28.30;;;;;;5074297;28;20478;-77
2023/11/06 08:57:00;;;;;;;2.87;0.83;;;24.80;27.50;;;;;;5073891;28;20468;-77
2023/11/06 08:59:27;;;;;;;32.43;20.70;;;25.10;27.60;;;;;;5073475;28;20799;-77
2023/11/06 09:01:58;;;;;;;10.40;6.53;;;25.40;27.00;;;;;;5073650;28;20472;-76
2023/11/06 09:04:25;;;;;;;14.80;9.93;;;25.70;26.70;;;;;;5074247;28;20768;-77
2023/11/06 09:06:52;;;;;;;5.37;3.27;;;25.90;26.20;;;;;;5074017;28;20436;-77
2023/11/06 09:09:19;;;;;;;8.60;5.30;;;26.10;25.70;;;;;;5073950;28;20433;-77
2023/11/06 09:11:48;;;;;;;8.00;3.20;;;26.20;25.50;;;;;;5074081;28;20436;-77
2023/11/06 09:14:17;;;;;;;27.87;21.30;;;26.40;25.30;;;;;;5073345;28;20809;-77
2023/11/06 09:16:44;;;;;;;2.53;1.07;;;26.60;25.00;;;;;;5073825;28;20479;-77
2023/11/06 09:19:17;;;;;;;2.37;0.77;;;26.80;24.10;;;;;;5073950;28;20425;-77
2023/11/06 09:21:44;;;;;;;2.00;0.70;;;26.90;23.90;;;;;;5073889;28;20530;-77
2023/11/06 09:24:12;;;;;;;2.50;0.80;;;26.80;24.20;;;;;;5073691;28;20492;-77
2023/11/06 09:26:39;;;;;;;2.77;1.33;;;26.80;24.40;;;;;;5073408;28;20845;-77
2023/11/06 09:29:08;;;;;;;2.27;0.70;;;27.00;23.90;;;;;;5073631;28;20439;-77
2023/11/06 09:31:35;;;;;;;2.20;0.90;;;27.50;24.00;;;;;;5073640;28;20482;-77
2023/11/06 09:34:02;;;;;;;1.90;0.60;;;28.20;23.50;;;;;;5073577;28;20456;-77
2023/11/06 09:36:32;;;;;;;2.20;0.60;;;29.00;22.30;;;;;;5073590;28;20525;-77
2023/11/06 09:38:59;;;;;;;1.90;0.67;;;29.70;21.90;;;;;;5073279;28;20478;-77
2023/11/06 09:41:27;;;;;;;2.30;0.80;;;30.50;21.60;;;;;;5073581;28;20486;-77
2023/11/06 09:44:09;;;;;;;3.97;0.83;;;31.30;20.60;;;;;;5073442;28;20443;-77
2023/11/06 09:46:40;;;;;;;3.40;0.83;;;31.30;20.20;;;;;;5073131;28;20416;-77
2023/11/06 09:49:14;;;;;;;2.00;0.60;;;31.70;19.60;;;;;;5073312;28;20903;-78
2023/11/06 09:51:44;;;;;;;2.87;0.60;;;32.60;19.10;;;;;;5073612;28;20428;-77
2023/11/06 09:54:13;;;;;;;2.00;0.70;;;33.50;18.60;;;;;;5073847;28;20446;-78
2023/11/06 09:56:45;;;;;;;3.33;0.83;;;34.30;17.40;;;;;;5073279;28;20454;-78
2023/11/06 09:59:19;;;;;;;3.27;0.70;;;35.00;17.00;;;;;;5073014;28;20969;-78
2023/11/06 10:01:46;;;;;;;6.33;1.00;;;35.70;16.30;;;;;;5073309;28;20416;-78
2023/11/06 10:04:16;;;;;;;2.40;0.70;;;36.40;15.90;;;;;;5073358;28;20460;-78
2023/11/06 10:06:44;;;;;;;1.90;0.60;;;37.10;15.30;;;;;;5073675;28;20444;-78
2023/11/06 10:09:22;;;;;;;2.00;0.70;;;37.60;14.40;;;;;;5073236;28;20451;-79
2023/11/06 10:11:50;;;;;;;2.30;0.90;;;38.20;13.70;;;;;;5072980;28;20440;-78
2023/11/06 10:14:18;;;;;;;10.57;4.93;;;38.70;13.40;;;;;;5073129;28;20511;-79
2023/11/06 10:16:45;;;;;;;15.33;13.73;;;39.10;13.00;;;;;;5072906;28;20493;-78
2023/11/06 10:19:24;;;;;;;14.50;12.73;;;39.60;12.60;;;;;;5073143;28;20797;-78
2023/11/06 10:21:52;;;;;;;38.40;33.40;;;40.10;12.30;;;;;;5073254;28;20481;-78
2023/11/06 10:24:21;;;;;;;27.40;20.60;;;40.60;11.90;;;;;;5072726;28;20442;-78
2023/11/06 10:26:50;;;;;;;38.13;34.27;;;41.00;11.60;;;;;;5075740;28;20432;-76
2023/11/06 10:29:19;;;;;;;21.17;18.93;;;41.40;11.40;;;;;;5076611;28;20489;-76
2023/11/06 10:31:49;;;;;;;3.83;2.03;;;41.70;11.40;;;;;;5076597;28;20486;-76
2023/11/06 10:34:27;;;;;;;4.30;2.70;;;42.00;9.90;;;;;;5076659;28;20455;-76
2023/11/06 10:37:05;;;;;;;5.57;4.37;;;42.10;10.10;;;;;;5077056;28;20754;-76
2023/11/06 10:39:34;;;;;;;13.43;12.43;;;42.30;10.00;;;;;;5076708;28;20459;-76
2023/11/06 10:42:02;;;;;;;6.70;6.10;;;42.70;9.90;;;;;;5076777;28;20489;-76
2023/11/06 10:44:33;;;;;;;2.90;1.50;;;42.90;9.50;;;;;;5076625;28;20800;-76
2023/11/06 10:47:09;;;;;;;5.13;1.70;;;43.00;8.80;;;;;;5076363;28;20516;-76
2023/11/06 10:49:39;;;;;;;3.23;1.20;;;43.20;9.40;;;;;;5076737;28;20484;-79
2023/11/06 10:52:14;;;;;;;2.90;1.30;;;43.30;8.80;;;;;;5076591;28;20478;-78
2023/11/06 10:54:42;;;;;;;2.03;0.70;;;43.10;8.60;;;;;;5076628;28;20840;-78
2023/11/06 10:57:14;;;;;;;2.20;0.70;;;43.00;8.80;;;;;;5076247;28;20833;-79
2023/11/06 10:59:44;;;;;;;2.77;0.70;;;43.30;8.40;;;;;;5076371;28;20493;-78
2023/11/06 11:02:30;;;;;;;3.20;0.90;;;43.80;8.80;;;;;;5076149;28;20505;-78
2023/11/06 11:04:59;;;;;;;1.97;0.60;;;44.20;8.10;;;;;;5076191;28;20411;-78
2023/11/06 11:07:31;;;;;;;2.37;0.60;;;44.60;7.60;;;;;;5076328;28;20432;-79
2023/11/06 11:10:00;;;;;;;2.40;0.80;;;44.80;7.40;;;;;;5076186;28;20471;-79
2023/11/06 11:12:28;;;;;;;2.37;0.60;;;44.80;7.40;;;;;;5076313;28;20621;-79
2023/11/06 11:14:58;;;;;;;2.40;0.77;;;44.80;7.40;;;;;;5076129;28;20435;-78
2023/11/06 11:17:28;;;;;;;1.80;0.50;;;44.90;7.10;;;;;;5076396;28;20862;-78
2023/11/06 11:19:56;;;;;;;3.07;0.83;;;45.00;7.60;;;;;;5075633;28;20468;-79
2023/11/06 11:22:24;;;;;;;2.00;0.60;;;45.30;7.40;;;;;;5076613;28;20440;-79
2023/11/06 11:24:55;;;;;;;52.63;6.43;;;45.40;7.10;;;;;;5076059;28;20440;-78
2023/11/06 11:27:24;;;;;;;3.00;0.70;;;45.60;6.90;;;;;;5076509;28;20428;-79
2023/11/06 11:30:13;;;;;;;3.20;0.60;;;45.70;7.00;;;;;;5075965;28;20817;-76
2023/11/06 11:32:47;;;;;;;1.90;0.60;;;45.90;7.00;;;;;;5082984;28;20539;-76
2023/11/06 11:35:57;;;;;;;2.53;0.60;;;46.10;6.90;;;;;;5095679;28;20474;-76
2023/11/06 11:38:35;;;;;;;1.93;0.60;;;46.40;6.70;;;;;;5094391;28;20423;-76
2023/11/06 11:41:15;;;;;;;2.50;0.60;;;44.60;6.70;;;;;;5095991;28;20440;-75
2023/11/06 11:43:47;;;;;;;3.97;0.80;;;42.10;8.10;;;;;;5094960;28;21008;-75
2023/11/06 11:46:56;;;;;;;4.10;0.70;;;40.90;8.30;;;;;;5095642;28;20458;-76
2023/11/06 11:49:46;;;;;;;2.27;0.63;;;38.80;9.50;;;;;;5095368;28;20458;-74
2023/11/06 11:52:16;;;;;;;2.40;0.60;;;37.40;9.80;;;;;;5095203;28;20771;-74
2023/11/06 11:54:45;;;;;;;2.30;0.60;;;35.00;11.10;;;;;;5095107;28;20447;-74
2023/11/06 11:57:19;;;;;;;2.20;0.70;;;32.90;12.80;;;;;;5095039;28;20545;-74
2023/11/06 11:59:50;;;;;;;1.80;0.50;;;31.30;13.70;;;;;;5094518;28;20443;-75
2023/11/06 12:02:27;;;;;;;6.37;0.80;;;32.10;14.30;;;;;;5095059;28;20519;-75
2023/11/06 12:04:57;;;;;;;2.77;0.70;;;34.60;13.30;;;;;;5094112;28;20423;-77
2023/11/06 12:07:27;;;;;;;2.00;0.80;;;36.10;11.80;;;;;;5094674;28;20412;-75
2023/11/06 12:09:56;;;;;;;1.70;0.50;;;36.50;10.70;;;;;;5095076;28;20427;-74
2023/11/06 12:12:24;;;;;;;5.00;0.63;;;35.90;11.40;;;;;;5094663;28;20464;-75
2023/11/06 12:14:52;;;;;;;2.03;0.60;;;35.60;11.50;;;;;;5094933;28;20439;-74
2023/11/06 12:17:28;;;;;;;2.47;0.50;;;35.40;11.90;;;;;;5094791;28;20423;-75
2023/11/06 12:19:55;;;;;;;3.07;0.67;;;36.20;11.80;;;;;;5094690;28;20809;-75
2023/11/06 12:22:23;;;;;;;1.73;0.60;;;37.90;11.20;;;;;;5095077;28;20435;-75
2023/11/06 12:24:50;;;;;;;3.40;0.90;;;38.80;10.40;;;;;;5095031;28;20446;-77
2023/11/06 12:27:19;;;;;;;2.53;1.13;;;39.00;10.70;;;;;;5094796;28;20997;-77
2023/11/06 12:29:46;;;;;;;2.10;0.80;;;39.40;10.00;;;;;;5094934;28;20446;-77
2023/11/06 12:32:21;;;;;;;2.67;0.70;;;40.00;9.70;;;;;;5093411;28;20774;-77
2023/11/06 12:35:06;;;;;;;2.00;0.63;;;39.10;9.40;;;;;;5094984;28;20510;-77
2023/11/06 12:37:48;;;;;;;2.20;0.70;;;37.20;10.30;;;;;;5092897;28;20462;-76
2023/11/06 12:40:15;;;;;;;2.87;0.90;;;35.50;11.60;;;;;;5094194;28;20427;-76
2023/11/06 12:42:42;;;;;;;2.10;0.60;;;33.90;12.50;;;;;;5094152;28;21002;-76
2023/11/06 12:45:25;;;;;;;2.10;0.83;;;32.10;13.40;;;;;;5094719;28;20456;-76
2023/11/06 12:47:52;;;;;;;2.43;0.60;;;30.30;14.60;;;;;;5093776;28;20414;-77
2023/11/06 12:50:21;;;;;;;3.63;0.80;;;28.90;15.70;;;;;;5090960;28;20808;-76
2023/11/06 12:52:48;;;;;;;1.93;0.60;;;27.80;17.20;;;;;;5093912;28;20882;-76
2023/11/06 12:55:15;;;;;;;1.97;0.70;;;26.80;18.10;;;;;;5094446;28;20438;-75
2023/11/06 12:57:43;;;;;;;3.37;0.73;;;25.90;19.30;;;;;;5094389;28;20438;-76
2023/11/06 13:00:20;;;;;;;2.30;0.67;;;25.00;20.80;;;;;;5093751;28;20450;-76
2023/11/06 13:02:47;;;;;;;2.00;0.60;;;24.30;21.10;;;;;;5094272;28;20415;-75
2023/11/06 13:05:19;;;;;;;1.90;0.50;;;23.60;21.90;;;;;;5094314;28;20532;-75
2023/11/06 13:07:51;;;;;;;2.30;0.60;;;23.00;22.50;;;;;;5093700;28;20526;-75